Time;durP1;ratioP1;P1;durP2;ratioP2;P2;SDS_P1;SDS_P2;PMS_P1;PMS_P2;Temp;Humidity;BMP_temperature;BMP_pressure;BME280_temperature;BME280_humidity;BME280_pressure;Samples;Min_cycle;Max_cycle;Signal;HPM_P1;HPM_P2
2022/12/13 00:01:25;;;;;;;82.97;31.57;;;-3.70;35.40;;;;;;5047354;28;20433;-42
2022/12/13 00:03:55;;;;;;;73.43;30.43;;;-3.70;23.10;;;;;;5049899;28;20424;-41
2022/12/13 00:06:21;;;;;;;91.30;32.17;;;-3.70;21.10;;;;;;5049935;28;20472;-43
2022/12/13 00:08:46;;;;;;;82.07;32.10;;;-3.80;20.70;;;;;;5050087;28;20845;-42
2022/12/13 00:11:13;;;;;;;88.67;32.57;;;-3.80;20.40;;;;;;5050997;28;20214;-43
2022/12/13 00:13:41;;;;;;;80.30;31.33;;;-3.70;28.40;;;;;;5054549;28;20533;-42
2022/12/13 00:16:10;;;;;;;82.47;32.90;;;-3.70;39.10;;;;;;5054209;28;20821;-42
2022/12/13 00:18:36;;;;;;;79.13;31.90;;;-3.70;22.70;;;;;;5054214;28;20436;-43
2022/12/13 00:21:12;;;;;;;85.83;31.67;;;-3.70;18.60;;;;;;5053723;28;20486;-42
2022/12/13 00:23:37;;;;;;;81.93;31.40;;;-3.70;27.90;;;;;;5054466;28;20198;-40
2022/12/13 00:26:05;;;;;;;91.40;34.20;;;-3.70;23.00;;;;;;5053905;28;20843;-42
2022/12/13 00:28:31;;;;;;;85.13;31.20;;;-3.70;17.40;;;;;;5054411;28;20193;-42
2022/12/13 00:31:01;;;;;;;80.33;31.93;;;-3.70;21.10;;;;;;5053052;28;20478;-42
2022/12/13 00:33:28;;;;;;;78.07;31.70;;;-3.70;24.80;;;;;;5053907;28;20432;-42
2022/12/13 00:35:53;;;;;;;82.53;31.80;;;-3.70;38.00;;;;;;5054358;28;21186;-42
2022/12/13 00:38:19;;;;;;;102.43;33.57;;;-3.70;47.40;;;;;;5052828;28;20451;-42
2022/12/13 00:40:45;;;;;;;89.40;32.10;;;-3.70;56.70;;;;;;5053069;28;20197;-42
2022/12/13 00:43:11;;;;;;;83.90;30.90;;;-3.70;59.40;;;;;;5047735;28;20524;-42
2022/12/13 00:45:37;;;;;;;84.33;32.37;;;-3.70;62.60;;;;;;5053309;28;20217;-45
2022/12/13 00:48:06;;;;;;;79.07;31.37;;;-3.70;55.50;;;;;;5053276;28;20713;-42
2022/12/13 00:50:32;;;;;;;84.90;29.17;;;-3.70;44.50;;;;;;5052318;28;20519;-41
2022/12/13 00:52:59;;;;;;;89.17;30.67;;;-3.80;28.00;;;;;;5051917;28;20467;-43
2022/12/13 00:55:25;;;;;;;83.47;31.07;;;-3.80;23.00;;;;;;5052810;28;20456;-43
2022/12/13 00:57:51;;;;;;;75.90;28.90;;;-3.90;22.80;;;;;;5052799;28;20785;-43
2022/12/13 01:00:17;;;;;;;80.03;29.53;;;-3.90;23.90;;;;;;5047152;28;20491;-43
2022/12/13 01:02:43;;;;;;;82.90;30.47;;;-4.00;21.40;;;;;;5052330;28;20437;-42
2022/12/13 01:05:10;;;;;;;84.87;30.37;;;-4.00;16.40;;;;;;5052084;28;20464;-42
2022/12/13 01:07:37;;;;;;;77.00;31.33;;;-4.00;16.40;;;;;;5051532;28;20436;-43
2022/12/13 01:10:04;;;;;;;82.23;30.63;;;-4.10;25.70;;;;;;5052487;28;20463;-41
2022/12/13 01:12:29;;;;;;;83.23;29.03;;;-4.10;34.10;;;;;;5050611;28;20800;-41
2022/12/13 01:14:55;;;;;;;82.87;31.57;;;-4.10;46.00;;;;;;5043034;28;20445;-41
2022/12/13 01:17:21;;;;;;;79.07;30.37;;;-4.10;54.60;;;;;;5053347;28;20162;-41
2022/12/13 01:19:46;;;;;;;76.30;29.70;;;-4.10;59.30;;;;;;5039826;28;20282;-50
2022/12/13 01:22:12;;;;;;;93.63;33.17;;;-4.10;72.80;;;;;;5051907;28;20995;-41
2022/12/13 01:24:38;;;;;;;84.67;33.33;;;-4.00;99.90;;;;;;5049110;28;20238;-42
2022/12/13 01:27:03;;;;;;;85.03;31.40;;;-3.90;99.90;;;;;;5052925;28;20177;-42
2022/12/13 01:29:29;;;;;;;75.63;28.97;;;-3.90;99.90;;;;;;5050698;28;20197;-43
2022/12/13 01:31:55;;;;;;;84.27;31.00;;;-3.80;99.90;;;;;;5053402;28;20218;-43
2022/12/13 01:34:22;;;;;;;90.50;31.60;;;-3.90;99.90;;;;;;5052999;28;20206;-42
2022/12/13 01:36:47;;;;;;;84.33;31.47;;;-3.80;99.90;;;;;;5051076;28;20174;-43
2022/12/13 01:39:16;;;;;;;88.93;31.60;;;-3.80;99.90;;;;;;5051737;28;20443;-43
2022/12/13 01:41:43;;;;;;;84.87;31.43;;;-3.80;99.90;;;;;;5051826;28;20190;-43
2022/12/13 01:44:46;;;;;;;93.00;33.10;;;-3.80;99.90;;;;;;5034153;28;20813;-42
2022/12/13 01:47:15;;;;;;;85.43;29.77;;;-3.80;99.90;;;;;;5044344;28;20907;-44
2022/12/13 01:49:40;;;;;;;83.50;32.00;;;-3.80;99.90;;;;;;5052582;28;20409;-43
2022/12/13 01:52:11;;;;;;;73.90;27.97;;;-3.80;99.90;;;;;;5052305;28;20479;-43
2022/12/13 01:54:43;;;;;;;84.77;29.97;;;-3.80;99.90;;;;;;5049426;28;20216;-43
2022/12/13 01:57:10;;;;;;;84.70;29.80;;;-3.90;99.90;;;;;;5052474;28;20420;-43
2022/12/13 01:59:40;;;;;;;79.67;30.90;;;-3.90;99.90;;;;;;5034446;28;20425;-43
2022/12/13 02:02:08;;;;;;;74.03;27.90;;;-3.90;99.90;;;;;;5052601;28;20467;-43
2022/12/13 02:04:55;;;;;;;79.37;29.30;;;-3.90;99.90;;;;;;5052555;28;20460;-42
2022/12/13 02:07:26;;;;;;;78.77;29.73;;;-3.90;99.90;;;;;;5047523;28;20930;-43
2022/12/13 02:09:56;;;;;;;85.77;31.67;;;-3.90;99.90;;;;;;5050480;28;20409;-43
2022/12/13 02:12:22;;;;;;;84.07;29.43;;;-3.90;99.90;;;;;;5052274;28;20417;-42
2022/12/13 02:14:48;;;;;;;80.20;30.50;;;-3.90;99.90;;;;;;5049250;28;20498;-43
2022/12/13 02:17:58;;;;;;;84.47;30.40;;;-3.90;99.90;;;;;;5049580;28;20429;-45
2022/12/13 02:20:54;;;;;;;80.17;31.00;;;-3.90;99.90;;;;;;5000209;28;20596;-43
2022/12/13 02:23:53;;;;;;;76.30;29.30;;;-3.90;99.90;;;;;;5003973;28;20426;-43
2022/12/13 02:26:34;;;;;;;86.83;28.83;;;-3.90;99.90;;;;;;5035869;28;20814;-42
2022/12/13 02:29:11;;;;;;;83.10;28.67;;;-3.90;99.90;;;;;;5039671;28;20838;-44
2022/12/13 02:31:45;;;;;;;79.53;29.53;;;-3.90;99.90;;;;;;5049735;28;21184;-43
2022/12/13 02:34:24;;;;;;;77.80;29.97;;;-3.90;99.90;;;;;;5050452;28;21207;-43
2022/12/13 02:37:05;;;;;;;80.47;28.97;;;-3.90;99.90;;;;;;5051306;28;20432;-45
2022/12/13 02:39:40;;;;;;;86.27;30.87;;;-3.90;99.90;;;;;;5051029;28;20424;-42
2022/12/13 02:42:22;;;;;;;76.67;29.53;;;-3.80;99.90;;;;;;5030109;28;20433;-43
2022/12/13 02:45:01;;;;;;;78.63;29.27;;;-3.70;99.90;;;;;;5051898;28;20474;-43
2022/12/13 02:47:29;;;;;;;70.20;27.90;;;-3.70;99.90;;;;;;5045937;28;20515;-42
2022/12/13 02:49:58;;;;;;;72.80;29.67;;;-3.60;99.90;;;;;;5049294;28;20452;-42
2022/12/13 02:52:26;;;;;;;78.17;29.83;;;-3.60;99.90;;;;;;5051237;28;20467;-43
2022/12/13 02:54:55;;;;;;;76.27;29.17;;;-3.50;99.90;;;;;;5051627;28;20433;-42
2022/12/13 02:57:34;;;;;;;76.07;28.73;;;-3.50;99.90;;;;;;5051387;28;20764;-43
2022/12/13 03:00:11;;;;;;;81.43;29.50;;;-3.40;99.90;;;;;;5050004;28;20437;-43
2022/12/13 03:02:52;;;;;;;78.20;29.40;;;-3.40;99.90;;;;;;5052078;28;20785;-43
2022/12/13 03:08:41;;;;;;;73.57;27.93;;;-3.40;99.90;;;;;;5038516;28;20474;-43
2022/12/13 03:11:16;;;;;;;76.73;29.23;;;-3.40;99.90;;;;;;5051359;28;20490;-42
2022/12/13 03:13:54;;;;;;;74.83;28.73;;;-3.40;99.90;;;;;;5050897;28;20428;-43
2022/12/13 03:16:40;;;;;;;77.30;29.40;;;-3.30;99.90;;;;;;5033169;28;20439;-43
2022/12/13 03:19:09;;;;;;;85.10;29.67;;;-3.40;79.00;;;;;;5051070;28;20432;-43
2022/12/13 03:21:44;;;;;;;74.00;27.80;;;-3.40;57.10;;;;;;5050059;28;20469;-43
2022/12/13 03:24:10;;;;;;;75.73;28.53;;;-3.40;42.70;;;;;;5050201;28;20480;-42
2022/12/13 03:26:37;;;;;;;73.57;27.70;;;-3.40;41.80;;;;;;5050521;28;20428;-43
2022/12/13 03:29:03;;;;;;;78.87;30.40;;;-3.40;47.30;;;;;;5050132;28;20190;-42
2022/12/13 03:31:28;;;;;;;63.77;27.37;;;-3.30;58.80;;;;;;5050945;28;20429;-43
2022/12/13 03:33:54;;;;;;;89.67;30.47;;;-3.30;68.80;;;;;;5040839;28;20186;-44
2022/12/13 03:36:20;;;;;;;78.03;28.40;;;-3.20;74.00;;;;;;5048290;28;20226;-43
2022/12/13 03:38:47;;;;;;;78.60;30.37;;;-3.20;74.90;;;;;;5046438;28;20183;-43
2022/12/13 03:41:17;;;;;;;81.27;29.40;;;-3.10;71.30;;;;;;5045948;28;20429;-44
2022/12/13 03:43:43;;;;;;;73.50;28.80;;;-3.10;61.70;;;;;;5049405;28;20822;-43
2022/12/13 03:46:09;;;;;;;76.60;28.90;;;-3.10;56.40;;;;;;5051022;28;20467;-41
2022/12/13 03:48:35;;;;;;;85.83;30.53;;;-3.00;50.40;;;;;;5054128;28;20421;-43
2022/12/13 03:51:01;;;;;;;67.23;27.07;;;-3.00;36.80;;;;;;5053859;28;20436;-42
2022/12/13 03:53:27;;;;;;;69.80;28.90;;;-3.00;10.20;;;;;;5054798;28;20189;-43
2022/12/13 03:55:54;;;;;;;77.37;28.23;;;-3.10;1.00;;;;;;5054909;28;20429;-43
2022/12/13 03:58:20;;;;;;;66.03;26.97;;;-3.10;1.00;;;;;;5054812;28;20429;-43
2022/12/13 04:00:46;;;;;;;78.60;29.53;;;-3.20;1.00;;;;;;5054454;28;20443;-41
2022/12/13 04:03:12;;;;;;;68.33;28.53;;;-3.20;1.00;;;;;;5054592;28;20921;-43
2022/12/13 04:05:38;;;;;;;72.87;28.40;;;-3.20;1.00;;;;;;5054121;28;20460;-43
2022/12/13 04:08:04;;;;;;;63.97;25.67;;;-3.30;1.00;;;;;;5054141;28;20187;-42
2022/12/13 04:10:30;;;;;;;70.40;27.33;;;-3.40;1.00;;;;;;5054864;28;20928;-43
2022/12/13 04:15:47;;;;;;;69.10;27.70;;;-3.40;1.00;;;;;;5054162;28;20195;-43
2022/12/13 04:18:17;;;;;;;65.10;27.13;;;-3.40;1.00;;;;;;5051989;28;20433;-43
2022/12/13 04:20:43;;;;;;;74.50;27.40;;;-3.30;1.00;;;;;;5054186;28;20455;-43
2022/12/13 04:23:09;;;;;;;69.50;27.70;;;-3.40;1.00;;;;;;5051734;28;20420;-43
2022/12/13 04:25:34;;;;;;;69.77;28.07;;;-3.40;1.00;;;;;;5045421;28;20494;-42
2022/12/13 04:28:00;;;;;;;77.93;29.20;;;-3.40;1.00;;;;;;5054069;28;20212;-42
2022/12/13 04:30:26;;;;;;;67.73;26.53;;;-3.40;1.00;;;;;;5053884;28;20182;-43
2022/12/13 04:32:51;;;;;;;62.10;26.93;;;-3.30;1.00;;;;;;5051799;28;20933;-43
2022/12/13 04:35:17;;;;;;;67.03;28.27;;;-3.30;1.00;;;;;;5052362;28;20194;-43
2022/12/13 04:37:43;;;;;;;75.40;29.50;;;-3.20;1.00;;;;;;5054934;28;20200;-43
2022/12/13 04:40:09;;;;;;;76.73;29.90;;;-3.20;1.00;;;;;;5053493;28;20580;-43
2022/12/13 04:42:35;;;;;;;68.97;26.83;;;-3.10;1.00;;;;;;5054206;28;20487;-43
2022/12/13 04:45:01;;;;;;;72.77;30.07;;;-3.10;1.00;;;;;;5053866;28;20552;-42
2022/12/13 04:47:26;;;;;;;69.90;28.50;;;-3.00;1.00;;;;;;5053988;28;20237;-44
2022/12/13 04:49:52;;;;;;;66.60;28.53;;;-2.90;1.00;;;;;;5053429;28;20182;-43
2022/12/13 04:52:18;;;;;;;67.20;28.90;;;-2.90;1.00;;;;;;5053335;28;20179;-43
2022/12/13 04:54:43;;;;;;;65.30;27.07;;;-2.80;1.00;;;;;;5053220;28;20428;-42
2022/12/13 04:57:10;;;;;;;75.63;27.90;;;-2.80;1.00;;;;;;5031919;28;20603;-43
2022/12/13 04:59:36;;;;;;;66.33;25.77;;;-2.80;1.00;;;;;;5045325;28;20205;-43
2022/12/13 05:02:03;;;;;;;63.97;26.10;;;-2.70;1.00;;;;;;5053057;28;20421;-43
2022/12/13 05:04:29;;;;;;;62.40;25.53;;;-2.60;1.00;;;;;;5053084;28;20187;-42
2022/12/13 05:06:54;;;;;;;58.77;26.10;;;-2.70;99.90;;;;;;5053592;28;20431;-43
2022/12/13 05:09:20;;;;;;;59.57;24.90;;;-2.60;99.90;;;;;;5052877;28;20186;-43
2022/12/13 05:11:46;;;;;;;60.10;25.30;;;-2.70;99.90;;;;;;5052934;28;20210;-43
2022/12/13 05:14:11;;;;;;;66.30;26.50;;;-2.70;95.30;;;;;;5050632;28;20617;-42
2022/12/13 05:16:37;;;;;;;64.97;26.67;;;-2.60;75.30;;;;;;5053045;28;20918;-43
2022/12/13 05:19:02;;;;;;;62.70;25.77;;;-2.60;1.00;;;;;;5053049;28;20194;-42
2022/12/13 05:21:28;;;;;;;73.10;27.20;;;-2.60;1.00;;;;;;5052855;28;20194;-43
2022/12/13 05:23:53;;;;;;;66.43;26.33;;;-2.60;1.00;;;;;;5052582;28;20179;-42
2022/12/13 05:26:19;;;;;;;63.80;25.60;;;-2.60;1.00;;;;;;5053035;28;20218;-48
2022/12/13 05:28:44;;;;;;;59.90;25.93;;;-2.60;1.00;;;;;;5053022;28;20200;-44
2022/12/13 05:31:12;;;;;;;62.60;26.40;;;-2.60;1.00;;;;;;5051111;28;20214;-43
2022/12/13 05:33:37;;;;;;;60.07;26.47;;;-2.60;1.00;;;;;;5053179;28;20229;-42
2022/12/13 05:36:04;;;;;;;67.47;26.53;;;-2.50;1.00;;;;;;5052648;28;20460;-43
2022/12/13 05:38:30;;;;;;;65.00;26.20;;;-2.60;99.90;;;;;;5052750;28;20190;-43
2022/12/13 05:40:56;;;;;;;63.53;25.60;;;-2.60;99.90;;;;;;5052411;28;20452;-43
2022/12/13 05:43:22;;;;;;;54.13;23.63;;;-2.60;1.00;;;;;;5052535;28;20501;-42
2022/12/13 05:45:49;;;;;;;62.37;24.73;;;-2.50;1.00;;;;;;5052546;28;20465;-43
2022/12/13 05:48:14;;;;;;;57.00;25.00;;;-2.50;1.00;;;;;;5031550;28;20911;-43
2022/12/13 05:50:40;;;;;;;56.03;24.90;;;-2.50;1.00;;;;;;5052122;28;20435;-43
2022/12/13 05:53:06;;;;;;;66.80;25.37;;;-2.40;1.00;;;;;;5052319;28;20623;-43
2022/12/13 05:55:32;;;;;;;57.33;25.33;;;-2.40;1.00;;;;;;5051769;28;20193;-49
2022/12/13 05:57:58;;;;;;;55.53;24.80;;;-2.40;1.00;;;;;;5052575;28;20432;-43
2022/12/13 06:00:24;;;;;;;61.60;25.67;;;-2.30;1.00;;;;;;5053637;28;20432;-43
2022/12/13 06:02:50;;;;;;;53.97;23.40;;;-2.30;1.00;;;;;;5052439;28;20833;-43
2022/12/13 06:05:16;;;;;;;60.77;25.53;;;-2.30;99.90;;;;;;5048658;28;20508;-43
2022/12/13 06:07:41;;;;;;;55.50;24.23;;;-2.40;99.90;;;;;;5051801;28;20179;-43
2022/12/13 06:10:07;;;;;;;54.13;24.70;;;-2.30;99.90;;;;;;5051194;28;20225;-43
2022/12/13 06:12:34;;;;;;;63.33;24.70;;;-2.30;99.90;;;;;;5052354;28;20190;-42
2022/12/13 06:15:00;;;;;;;55.90;24.17;;;-2.30;99.90;;;;;;5051882;28;20462;-43
2022/12/13 06:17:30;;;;;;;50.70;23.03;;;-2.30;99.90;;;;;;5052545;28;20413;-42
2022/12/13 06:19:56;;;;;;;56.03;25.27;;;-2.40;15.50;;;;;;5051646;28;20432;-43
2022/12/13 06:22:21;;;;;;;55.93;23.13;;;-2.40;1.00;;;;;;5047523;28;20491;-43
2022/12/13 06:24:47;;;;;;;63.27;24.70;;;-2.30;1.00;;;;;;5049723;28;20245;-42
2022/12/13 06:27:12;;;;;;;59.97;25.17;;;-2.30;1.00;;;;;;5051019;28;20186;-43
2022/12/13 06:29:38;;;;;;;56.63;23.90;;;-2.30;1.00;;;;;;5051583;28;20265;-42
2022/12/13 06:32:04;;;;;;;55.17;23.90;;;-2.30;1.00;;;;;;5051571;28;20182;-43
2022/12/13 06:34:34;;;;;;;57.53;24.53;;;-2.30;99.90;;;;;;5048384;28;20677;-42
2022/12/13 06:37:02;;;;;;;56.57;23.07;;;-2.30;99.90;;;;;;5051716;28;20643;-43
2022/12/13 06:39:28;;;;;;;61.63;23.40;;;-2.30;99.90;;;;;;5045369;28;20914;-43
2022/12/13 06:41:54;;;;;;;57.87;25.17;;;-2.30;1.00;;;;;;5050918;28;20451;-43
2022/12/13 06:44:20;;;;;;;56.17;23.13;;;-2.40;1.00;;;;;;5049741;28;20444;-43
2022/12/13 06:46:45;;;;;;;52.73;22.37;;;-2.40;1.00;;;;;;5050587;28;20440;-43
2022/12/13 06:49:11;;;;;;;60.17;23.10;;;-2.40;99.90;;;;;;5051323;28;20186;-42
2022/12/13 06:51:36;;;;;;;58.07;23.43;;;-2.40;99.90;;;;;;5051577;28;20186;-45
2022/12/13 06:54:02;;;;;;;53.07;22.60;;;-2.40;99.90;;;;;;5051194;28;20182;-42
2022/12/13 06:56:29;;;;;;;60.03;24.40;;;-2.40;99.90;;;;;;5050970;28;20198;-43
2022/12/13 06:58:54;;;;;;;55.30;22.87;;;-2.40;99.90;;;;;;5051195;28;20213;-43
2022/12/13 07:01:20;;;;;;;50.50;22.20;;;-2.40;99.90;;;;;;5051662;28;20432;-42
2022/12/13 07:03:46;;;;;;;59.93;22.70;;;-2.40;99.90;;;;;;5051699;28;20658;-45
2022/12/13 07:06:17;;;;;;;51.37;24.40;;;-2.40;99.90;;;;;;5048729;28;20217;-43
2022/12/13 07:08:47;;;;;;;53.07;24.63;;;-2.40;99.90;;;;;;5051621;28;20189;-42
2022/12/13 07:11:17;;;;;;;52.53;23.33;;;-2.40;99.90;;;;;;5052284;28;20433;-43
2022/12/13 07:13:43;;;;;;;55.47;25.57;;;-2.40;1.00;;;;;;5050367;28;20502;-42
2022/12/13 07:16:10;;;;;;;52.53;23.70;;;-2.40;1.00;;;;;;5051278;28;20774;-42
2022/12/13 07:18:36;;;;;;;54.50;24.00;;;-2.40;1.00;;;;;;5048584;28;20456;-53
2022/12/13 07:21:07;;;;;;;51.33;21.17;;;-2.40;1.00;;;;;;5050913;28;20433;-43
2022/12/13 07:23:34;;;;;;;41.20;19.33;;;-2.40;99.90;;;;;;5050377;28;20480;-43
2022/12/13 07:26:00;;;;;;;56.63;22.47;;;-2.40;99.90;;;;;;5049944;28;20488;-42
2022/12/13 07:28:25;;;;;;;52.20;21.10;;;-2.40;1.00;;;;;;5051276;28;20921;-42
2022/12/13 07:30:51;;;;;;;51.30;21.17;;;-2.30;1.00;;;;;;5050963;28;20182;-43
2022/12/13 07:33:16;;;;;;;54.73;23.70;;;-2.30;1.00;;;;;;5045421;28;20216;-42
2022/12/13 07:35:42;;;;;;;52.13;21.77;;;-2.30;1.00;;;;;;5041950;28;20660;-42
2022/12/13 07:38:10;;;;;;;53.13;22.70;;;-2.20;99.90;;;;;;5050961;28;20554;-42
2022/12/13 07:40:37;;;;;;;60.77;23.97;;;-2.20;1.00;;;;;;5034138;28;20247;-43
2022/12/13 07:43:03;;;;;;;49.93;23.23;;;-2.10;99.90;;;;;;5051007;28;20452;-41
2022/12/13 07:45:29;;;;;;;53.47;22.93;;;-2.10;99.90;;;;;;5051213;28;20555;-41
2022/12/13 07:47:55;;;;;;;58.97;24.63;;;-2.10;99.90;;;;;;5033665;28;20464;-41
2022/12/13 07:50:21;;;;;;;59.10;25.47;;;-2.10;1.00;;;;;;5033169;28;21232;-41
2022/12/13 07:52:47;;;;;;;52.10;24.60;;;-2.10;99.90;;;;;;5048686;28;20225;-40
2022/12/13 07:55:13;;;;;;;58.53;24.80;;;-2.00;99.90;;;;;;5051144;28;20878;-41
2022/12/13 07:57:39;;;;;;;49.13;22.33;;;-2.00;99.90;;;;;;5048094;28;20475;-47
2022/12/13 08:00:05;;;;;;;62.93;23.70;;;-2.00;99.90;;;;;;5054103;28;20263;-41
2022/12/13 08:02:31;;;;;;;60.60;24.30;;;-1.90;1.00;;;;;;5051828;28;20974;-41
2022/12/13 08:04:57;;;;;;;52.23;23.40;;;-1.90;99.90;;;;;;5052099;28;20492;-51
2022/12/13 08:07:22;;;;;;;53.83;23.27;;;-1.90;99.90;;;;;;5051106;28;20221;-40
2022/12/13 08:09:48;;;;;;;58.07;25.00;;;-1.90;99.90;;;;;;5044460;28;20186;-39
2022/12/13 08:12:14;;;;;;;56.17;24.20;;;-1.80;99.90;;;;;;5051683;28;20201;-40
2022/12/13 08:14:39;;;;;;;48.80;22.83;;;-1.80;99.90;;;;;;5051672;28;20595;-41
2022/12/13 08:17:05;;;;;;;53.30;23.10;;;-1.80;1.00;;;;;;5051805;28;20252;-43
2022/12/13 08:19:31;;;;;;;50.20;22.43;;;-1.80;17.60;;;;;;5034304;28;20209;-42
2022/12/13 08:21:56;;;;;;;52.70;22.93;;;-1.80;1.00;;;;;;5052016;28;20190;-42
2022/12/13 08:24:26;;;;;;;59.03;23.50;;;-1.80;79.30;;;;;;5051283;28;20341;-42
2022/12/13 08:26:53;;;;;;;53.97;21.93;;;-1.70;15.50;;;;;;5051983;28;20218;-43
2022/12/13 08:29:19;;;;;;;53.93;23.80;;;-1.70;1.00;;;;;;5051438;28;20456;-43
2022/12/13 08:31:44;;;;;;;56.20;22.97;;;-1.60;1.00;;;;;;5051644;28;20432;-42
2022/12/13 08:34:10;;;;;;;49.57;22.67;;;-1.60;99.90;;;;;;5054139;28;20421;-43
2022/12/13 08:36:36;;;;;;;49.47;22.40;;;-1.60;1.00;;;;;;5052782;28;20952;-43
2022/12/13 08:39:01;;;;;;;50.10;22.83;;;-1.50;1.00;;;;;;5054812;28;20228;-42
2022/12/13 08:41:28;;;;;;;56.47;24.27;;;-1.40;1.00;;;;;;5055950;28;20277;-43
2022/12/13 08:43:53;;;;;;;50.87;21.87;;;-1.40;1.00;;;;;;5054480;28;20178;-42
2022/12/13 08:46:19;;;;;;;52.73;23.53;;;-1.30;1.00;;;;;;5055038;28;20471;-42
2022/12/13 08:48:45;;;;;;;44.33;20.10;;;-1.30;99.90;;;;;;5054804;28;20182;-43
2022/12/13 08:51:16;;;;;;;50.93;21.57;;;-1.30;99.90;;;;;;5052985;28;20558;-42
2022/12/13 08:53:42;;;;;;;53.37;21.90;;;-1.30;86.50;;;;;;5053679;28;20194;-42
2022/12/13 08:56:11;;;;;;;51.90;22.20;;;-1.30;1.00;;;;;;5049550;28;20462;-42
2022/12/13 08:58:38;;;;;;;53.93;23.33;;;-1.20;78.00;;;;;;5053247;28;20425;-43
2022/12/13 09:01:07;;;;;;;58.67;23.50;;;-1.20;1.00;;;;;;5054160;28;21050;-43
2022/12/13 09:03:34;;;;;;;49.50;22.10;;;-1.10;1.00;;;;;;5050749;28;20436;-55
2022/12/13 09:06:15;;;;;;;49.07;21.87;;;-1.10;99.90;;;;;;5053940;28;20492;-42
2022/12/13 09:08:42;;;;;;;46.63;21.20;;;-1.10;99.90;;;;;;5055008;28;20463;-41
2022/12/13 09:11:09;;;;;;;49.17;22.40;;;-1.00;99.90;;;;;;5052089;28;20472;-42
2022/12/13 09:13:36;;;;;;;57.83;23.53;;;-1.00;99.90;;;;;;5052725;28;20429;-42
2022/12/13 09:16:08;;;;;;;43.70;21.10;;;-1.00;1.00;;;;;;5054225;28;20428;-42
2022/12/13 09:18:34;;;;;;;48.87;23.00;;;-0.90;99.90;;;;;;5053436;28;20498;-43
2022/12/13 09:21:00;;;;;;;48.30;22.00;;;-0.90;90.30;;;;;;5053811;28;20440;-42
2022/12/13 09:23:25;;;;;;;48.37;22.83;;;-0.90;1.00;;;;;;5059615;28;20190;-46
2022/12/13 09:25:56;;;;;;;52.40;22.00;;;-0.80;1.00;;;;;;5052226;28;20234;-42
2022/12/13 09:28:22;;;;;;;56.20;23.83;;;-0.80;1.00;;;;;;5053109;28;20516;-42
2022/12/13 09:30:48;;;;;;;58.93;21.10;;;-0.70;99.90;;;;;;5047983;28;20487;-43
2022/12/13 09:33:14;;;;;;;65.57;23.87;;;-0.60;99.90;;;;;;5053017;28;20427;-42
2022/12/13 09:35:40;;;;;;;53.60;24.80;;;-0.50;99.90;;;;;;5046190;28;20445;-43
2022/12/13 09:38:05;;;;;;;57.43;23.80;;;-0.40;99.90;;;;;;5053365;28;20240;-42
2022/12/13 09:40:33;;;;;;;60.27;24.47;;;-0.30;1.00;;;;;;5053835;28;20933;-45
2022/12/13 09:43:00;;;;;;;57.10;23.07;;;-0.20;1.00;;;;;;5053156;28;20194;-43
2022/12/13 09:45:28;;;;;;;46.23;22.80;;;-0.20;1.00;;;;;;5053974;28;20519;-42
2022/12/13 09:47:54;;;;;;;49.43;22.60;;;-0.20;1.00;;;;;;5050860;28;20428;-42
2022/12/13 09:50:32;;;;;;;46.43;21.53;;;-0.10;1.00;;;;;;5054364;28;20433;-42
2022/12/13 09:53:00;;;;;;;45.53;21.90;;;-0.10;1.00;;;;;;5052718;28;20511;-42
2022/12/13 09:55:29;;;;;;;46.03;20.80;;;-0.10;1.00;;;;;;5053663;28;20433;-43
2022/12/13 09:57:56;;;;;;;51.00;22.17;;;-0.10;99.90;;;;;;5052850;28;20437;-42
2022/12/13 10:00:26;;;;;;;40.97;19.77;;;0.00;1.00;;;;;;5053106;28;20465;-42
2022/12/13 10:02:57;;;;;;;53.90;22.47;;;0.20;1.00;;;;;;5053322;28;20432;-43
2022/12/13 10:05:34;;;;;;;43.33;20.20;;;0.20;99.90;;;;;;5053322;28;20452;-43
2022/12/13 10:08:19;;;;;;;51.00;19.93;;;0.10;99.90;;;;;;5052649;28;20459;-44
2022/12/13 10:10:45;;;;;;;49.00;21.47;;;0.20;99.90;;;;;;5052575;28;20425;-43
2022/12/13 10:13:35;;;;;;;44.07;19.60;;;0.10;99.90;;;;;;5051842;28;20470;-42
2022/12/13 10:16:08;;;;;;;48.13;22.60;;;0.10;99.90;;;;;;5052482;28;20236;-42
2022/12/13 10:18:37;;;;;;;53.27;21.30;;;0.10;1.00;;;;;;5052375;28;20463;-43
2022/12/13 10:21:07;;;;;;;52.60;22.20;;;0.20;1.00;;;;;;5052012;28;20421;-42
2022/12/13 10:23:33;;;;;;;51.87;21.53;;;0.20;99.90;;;;;;5052755;28;20952;-42
2022/12/13 10:26:00;;;;;;;54.23;21.83;;;0.20;99.90;;;;;;5051760;28;20484;-42
2022/12/13 10:28:31;;;;;;;49.77;20.97;;;0.10;1.00;;;;;;5052120;28;20697;-43
2022/12/13 10:30:58;;;;;;;43.77;21.40;;;0.10;99.90;;;;;;5051583;28;20424;-42
2022/12/13 10:33:28;;;;;;;54.43;20.87;;;0.00;1.00;;;;;;5051738;28;20467;-42
2022/12/13 10:36:04;;;;;;;45.37;19.70;;;0.00;1.00;;;;;;5051590;28;20427;-42
2022/12/13 10:38:35;;;;;;;53.57;22.60;;;0.00;99.90;;;;;;5045018;28;20913;-42
2022/12/13 10:41:01;;;;;;;47.23;20.43;;;0.10;99.90;;;;;;5051620;28;20432;-43
2022/12/13 10:43:29;;;;;;;43.03;20.10;;;0.20;99.90;;;;;;5052316;28;20809;-43
2022/12/13 10:45:54;;;;;;;44.13;19.80;;;0.20;99.90;;;;;;5052039;28;20246;-43
2022/12/13 10:48:22;;;;;;;43.60;20.60;;;0.10;99.90;;;;;;5051516;28;20453;-42
2022/12/13 10:51:08;;;;;;;39.63;18.80;;;0.10;99.90;;;;;;5051704;28;20189;-40
2022/12/13 10:53:38;;;;;;;40.77;18.13;;;0.10;1.00;;;;;;5059567;28;20825;-42
2022/12/13 10:56:04;;;;;;;40.17;17.77;;;0.20;1.00;;;;;;5048179;28;20445;-42
2022/12/13 10:58:45;;;;;;;38.60;17.87;;;0.20;99.90;;;;;;5051747;28;20773;-42
2022/12/13 11:01:27;;;;;;;35.17;16.10;;;0.20;99.90;;;;;;5051241;28;20424;-49
2022/12/13 11:03:56;;;;;;;35.60;17.00;;;0.20;99.90;;;;;;5051343;28;20421;-42
2022/12/13 11:06:23;;;;;;;35.40;15.90;;;0.30;1.00;;;;;;5051022;28;20464;-41
2022/12/13 11:08:49;;;;;;;32.37;16.60;;;0.40;99.90;;;;;;5051689;28;20453;-42
2022/12/13 11:11:17;;;;;;;36.33;18.17;;;0.40;99.90;;;;;;5051259;28;20968;-43
2022/12/13 11:13:51;;;;;;;39.37;17.70;;;0.40;99.90;;;;;;5050965;28;20232;-43
2022/12/13 11:16:39;;;;;;;34.40;16.67;;;0.40;99.90;;;;;;5051175;28;20424;-43
2022/12/13 11:19:19;;;;;;;33.77;17.33;;;0.50;99.90;;;;;;5051059;28;20586;-58
2022/12/13 11:21:50;;;;;;;32.20;16.20;;;0.50;99.90;;;;;;5051243;28;20436;-43
2022/12/13 11:24:31;;;;;;;39.47;18.00;;;0.50;99.90;;;;;;5050739;28;20610;-42
2022/12/13 11:27:04;;;;;;;35.17;16.20;;;0.50;99.90;;;;;;5051687;28;20421;-42
2022/12/13 11:30:01;;;;;;;38.00;17.57;;;0.50;57.00;;;;;;5051501;28;20501;-42
2022/12/13 11:32:44;;;;;;;34.13;15.90;;;0.50;55.60;;;;;;5051374;28;20910;-42
2022/12/13 11:35:38;;;;;;;32.13;16.97;;;0.40;1.00;;;;;;5051423;28;20864;-42
2022/12/13 11:38:29;;;;;;;34.63;16.90;;;0.50;1.00;;;;;;5050454;28;20452;-43
2022/12/13 11:41:11;;;;;;;33.70;17.27;;;0.60;1.00;;;;;;5051694;28;20540;-43
2022/12/13 11:43:55;;;;;;;38.67;18.10;;;0.70;1.00;;;;;;5050891;28;20413;-45
2022/12/13 11:46:46;;;;;;;37.43;18.37;;;0.70;44.30;;;;;;5049478;28;20467;-40
2022/12/13 11:49:21;;;;;;;31.77;16.67;;;0.80;37.50;;;;;;5051005;28;20448;-41
2022/12/13 11:51:58;;;;;;;35.23;18.17;;;0.80;88.20;;;;;;5042597;28;20444;-39
2022/12/13 11:54:47;;;;;;;32.20;16.03;;;0.90;1.00;;;;;;5049251;28;20515;-40
2022/12/13 11:57:43;;;;;;;33.20;17.43;;;0.90;1.00;;;;;;5048518;28;20995;-39
2022/12/13 12:00:31;;;;;;;35.60;17.90;;;0.80;1.00;;;;;;5046267;28;20798;-39
2022/12/13 12:03:16;;;;;;;35.73;17.10;;;0.90;1.00;;;;;;5050722;28;20427;-44
2022/12/13 12:05:58;;;;;;;40.10;17.27;;;0.80;1.00;;;;;;5052279;28;20468;-39
2022/12/13 12:08:39;;;;;;;33.90;15.57;;;0.70;1.00;;;;;;5051800;28;20769;-40
2022/12/13 12:11:16;;;;;;;32.67;15.70;;;0.70;1.00;;;;;;5055080;28;20933;-44
2022/12/13 12:13:58;;;;;;;31.70;17.00;;;0.70;1.00;;;;;;5052972;28;20444;-40
2022/12/13 12:16:36;;;;;;;33.17;15.87;;;0.60;1.00;;;;;;5054742;28;20421;-38
2022/12/13 12:19:01;;;;;;;35.20;15.77;;;0.60;1.00;;;;;;5054778;28;20432;-39
2022/12/13 12:21:36;;;;;;;36.67;17.13;;;0.50;1.00;;;;;;5055377;28;20439;-44
2022/12/13 12:24:15;;;;;;;34.00;17.43;;;0.40;1.00;;;;;;5054345;28;20208;-40
2022/12/13 12:27:10;;;;;;;35.40;16.47;;;0.40;1.00;;;;;;5052370;28;20491;-39
2022/12/13 12:30:03;;;;;;;28.47;14.30;;;0.50;99.90;;;;;;5052503;28;20432;-40
2022/12/13 12:32:37;;;;;;;34.87;15.90;;;0.70;99.90;;;;;;5053754;28;20805;-40
2022/12/13 12:35:30;;;;;;;33.70;16.07;;;0.90;99.90;;;;;;5054625;28;20439;-39
2022/12/13 12:38:01;;;;;;;37.17;15.67;;;1.00;99.90;;;;;;5048829;28;20443;-40
2022/12/13 12:40:47;;;;;;;35.00;16.47;;;1.10;99.90;;;;;;5054355;28;20469;-40
2022/12/13 12:43:24;;;;;;;33.60;15.70;;;1.20;99.90;;;;;;5048224;28;20444;-39
2022/12/13 12:45:57;;;;;;;36.93;16.33;;;1.30;99.90;;;;;;5053530;28;20566;-40
2022/12/13 12:48:32;;;;;;;38.03;17.43;;;1.20;99.90;;;;;;5049318;28;20443;-43
2022/12/13 12:51:18;;;;;;;36.40;17.57;;;1.20;99.90;;;;;;5031082;28;20941;-38
2022/12/13 12:53:49;;;;;;;36.83;18.23;;;1.20;99.90;;;;;;5051903;28;20456;-39